createdAt,value
2018-05-17T00:00:55.784Z,5.20
2018-05-17T00:03:23.199Z,4.63
2018-05-17T00:05:51.385Z,4.33
2018-05-17T00:08:18.862Z,4.40
2018-05-17T00:10:46.283Z,4.93
2018-05-17T00:13:14.474Z,5.47
2018-05-17T00:15:47.789Z,5.30
2018-05-17T00:18:15.222Z,4.83
2018-05-17T00:20:42.655Z,4.57
2018-05-17T00:23:10.850Z,5.40
2018-05-17T00:25:38.370Z,4.87
2018-05-17T00:28:07.342Z,5.17
2018-05-17T00:30:34.770Z,4.73
2018-05-17T00:33:02.200Z,3.97
2018-05-17T00:35:30.390Z,4.83
2018-05-17T00:37:57.818Z,4.97
2018-05-17T00:40:25.243Z,4.80
2018-05-17T00:42:52.661Z,4.83
2018-05-17T00:45:20.140Z,4.87
2018-05-17T00:47:47.597Z,5.27
2018-05-17T00:50:15.022Z,4.97
2018-05-17T00:52:43.215Z,5.57
2018-05-17T00:55:10.798Z,5.07
2018-05-17T00:57:38.218Z,5.70
2018-05-17T01:00:06.405Z,4.87
2018-05-17T01:02:33.863Z,6.47
2018-05-17T01:05:01.646Z,5.50
2018-05-17T01:07:29.070Z,5.60
2018-05-17T01:09:57.257Z,6.53
2018-05-17T01:12:25.429Z,6.33
2018-05-17T01:14:52.866Z,5.47
2018-05-17T01:17:21.062Z,6.40
2018-05-17T01:19:48.550Z,5.57
2018-05-17T01:22:15.974Z,6.10
2018-05-17T01:24:43.773Z,5.80
2018-05-17T01:27:11.222Z,6.23
2018-05-17T01:29:38.729Z,6.03
2018-05-17T01:32:06.150Z,6.67
2018-05-17T01:34:33.575Z,6.07
2018-05-17T01:37:12.951Z,6.90
2018-05-17T01:39:40.619Z,5.70
2018-05-17T01:42:08.335Z,5.43
2018-05-17T01:44:35.713Z,6.03
2018-05-17T01:47:03.147Z,5.87
2018-05-17T01:49:30.570Z,5.17
2018-05-17T01:51:57.989Z,6.73
2018-05-17T01:54:25.410Z,6.73
2018-05-17T01:56:52.869Z,6.27
2018-05-17T01:59:20.298Z,6.30
2018-05-17T02:01:47.754Z,5.83
2018-05-17T02:04:15.198Z,5.77
2018-05-17T02:06:42.635Z,5.97
2018-05-17T02:09:10.064Z,5.67
2018-05-17T02:11:37.569Z,7.00
2018-05-17T02:14:04.998Z,6.33
2018-05-17T02:16:32.439Z,5.53
2018-05-17T02:18:59.866Z,6.13
2018-05-17T02:21:28.319Z,6.47
2018-05-17T02:23:55.954Z,6.53
2018-05-17T02:26:23.390Z,5.90
2018-05-17T02:28:50.814Z,5.80
2018-05-17T02:31:19.765Z,7.37
2018-05-17T02:33:48.178Z,5.87
2018-05-17T02:36:18.261Z,6.07
2018-05-17T02:38:45.732Z,6.07
2018-05-17T02:41:13.172Z,7.03
2018-05-17T02:43:40.595Z,7.03
2018-05-17T02:46:08.822Z,6.70
2018-05-17T02:48:36.246Z,6.30
2018-05-17T02:51:03.682Z,5.97
2018-05-17T02:53:32.005Z,7.63
2018-05-17T02:55:59.422Z,6.27
2018-05-17T02:58:27.618Z,7.07
2018-05-17T03:00:55.127Z,7.30
2018-05-17T03:03:24.085Z,6.47
2018-05-17T03:05:51.875Z,7.47
2018-05-17T03:08:19.410Z,6.20
2018-05-17T03:10:46.843Z,7.37
2018-05-17T03:13:14.290Z,6.60
2018-05-17T03:15:41.783Z,6.83
2018-05-17T03:18:09.201Z,7.07
2018-05-17T03:20:37.614Z,7.77
2018-05-17T03:23:05.110Z,7.03
2018-05-17T03:25:32.557Z,6.50
2018-05-17T03:28:00.094Z,7.07
2018-05-17T03:30:27.995Z,7.03
2018-05-17T03:32:55.446Z,6.33
2018-05-17T03:35:22.873Z,7.40
2018-05-17T03:37:50.436Z,6.07
2018-05-17T03:40:17.854Z,6.87
2018-05-17T03:42:46.038Z,6.23
2018-05-17T03:45:13.524Z,6.50
2018-05-17T03:47:40.942Z,7.20
2018-05-17T03:50:09.134Z,7.30
2018-05-17T03:52:36.606Z,6.50
2018-05-17T03:55:04.031Z,6.17
2018-05-17T03:57:33.118Z,7.80
2018-05-17T04:00:01.338Z,7.50
2018-05-17T04:02:40.694Z,5.20
2018-05-17T04:05:20.111Z,6.20
2018-05-17T04:07:47.590Z,6.83
2018-05-17T04:10:15.761Z,6.20
2018-05-17T04:12:43.197Z,6.60
2018-05-17T04:15:10.743Z,6.67
2018-05-17T04:17:38.188Z,6.87
2018-05-17T04:20:06.385Z,6.30
2018-05-17T04:22:33.823Z,6.17
2018-05-17T04:25:01.294Z,6.80
2018-05-17T04:27:28.725Z,7.07
2018-05-17T04:29:56.925Z,6.27
2018-05-17T04:32:24.369Z,6.30
2018-05-17T04:34:51.856Z,6.67
2018-05-17T04:37:19.266Z,7.03
2018-05-17T04:39:47.754Z,6.43
2018-05-17T04:42:16.019Z,6.63
2018-05-17T04:44:43.447Z,6.57
2018-05-17T04:47:10.969Z,7.10
2018-05-17T04:49:38.299Z,7.63
2018-05-17T04:52:07.666Z,6.73
2018-05-17T04:54:35.198Z,7.10
2018-05-17T04:57:02.650Z,6.00
2018-05-17T04:59:30.091Z,6.57
2018-05-17T05:01:57.575Z,6.80
2018-05-17T05:04:24.994Z,6.80
2018-05-17T05:06:53.186Z,7.23
2018-05-17T05:09:20.896Z,6.20
2018-05-17T05:11:49.149Z,6.87
2018-05-17T05:14:16.654Z,6.60
2018-05-17T05:16:44.894Z,7.83
2018-05-17T05:19:13.397Z,7.20
2018-05-17T05:21:40.799Z,6.13
2018-05-17T05:24:08.299Z,5.90
2018-05-17T05:26:36.040Z,6.57
2018-05-17T05:29:03.458Z,7.10
2018-05-17T05:31:31.713Z,5.63
2018-05-17T05:33:59.075Z,7.07
2018-05-17T05:36:26.546Z,6.67
2018-05-17T05:38:54.734Z,5.73
2018-05-17T05:41:22.174Z,6.13
2018-05-17T05:43:50.366Z,6.43
2018-05-17T05:46:19.634Z,6.63
2018-05-17T05:48:47.058Z,6.83
2018-05-17T05:51:14.483Z,5.97
2018-05-17T05:53:41.939Z,7.33
2018-05-17T05:56:09.629Z,6.33
2018-05-17T05:58:37.111Z,5.90
2018-05-17T06:01:04.561Z,6.20
2018-05-17T06:03:31.993Z,6.53
2018-05-17T06:05:59.660Z,7.13
2018-05-17T06:08:28.288Z,6.77
2018-05-17T06:10:55.679Z,7.63
2018-05-17T06:13:23.101Z,7.33
2018-05-17T06:15:50.525Z,8.23
2018-05-17T06:18:17.951Z,7.90
2018-05-17T06:20:45.447Z,10.20
2018-05-17T06:23:12.875Z,11.07
2018-05-17T06:25:40.301Z,8.63
2018-05-17T06:28:08.656Z,9.37
2018-05-17T06:30:36.078Z,8.53
2018-05-17T06:33:03.871Z,7.93
2018-05-17T06:35:31.341Z,8.93
2018-05-17T06:37:58.766Z,8.43
2018-05-17T06:40:26.194Z,7.87
2018-05-17T06:42:53.678Z,9.03
2018-05-17T06:45:21.146Z,9.63
2018-05-17T06:47:48.562Z,8.33
2018-05-17T06:50:16.764Z,8.57
2018-05-17T06:52:44.198Z,8.77
2018-05-17T06:55:11.627Z,8.50
2018-05-17T06:57:39.053Z,9.57
2018-05-17T07:00:06.727Z,8.67
2018-05-17T07:02:34.155Z,8.30
2018-05-17T07:05:01.636Z,6.60
2018-05-17T07:07:29.073Z,6.57
2018-05-17T07:09:56.553Z,7.00
2018-05-17T07:12:23.976Z,6.53
2018-05-17T07:14:51.398Z,6.23
2018-05-17T07:17:19.131Z,6.80
2018-05-17T07:19:46.550Z,6.40
2018-05-17T07:22:14.038Z,6.30
2018-05-17T07:24:41.494Z,6.87
2018-05-17T07:27:08.918Z,6.47
2018-05-17T07:29:36.339Z,6.13
2018-05-17T07:32:03.830Z,7.10
2018-05-17T07:34:31.254Z,7.43
2018-05-17T07:36:58.673Z,6.27
2018-05-17T07:39:26.129Z,5.43
2018-05-17T07:41:53.629Z,5.80
2018-05-17T07:44:21.782Z,6.35
2018-05-17T07:46:49.221Z,6.13
2018-05-17T07:49:16.639Z,6.45
2018-05-17T07:51:45.055Z,5.55
2018-05-17T07:54:12.538Z,6.12
2018-05-17T07:56:39.995Z,5.78
2018-05-17T07:59:07.489Z,6.35
2018-05-17T08:01:35.678Z,5.80
2018-05-17T08:04:03.345Z,6.10
2018-05-17T08:06:31.518Z,6.45
2018-05-17T08:08:58.954Z,5.50
2018-05-17T08:11:27.172Z,5.72
2018-05-17T08:13:54.638Z,5.70
2018-05-17T08:16:22.314Z,6.28
2018-05-17T08:18:50.784Z,5.45
2018-05-17T08:21:18.194Z,5.82
2018-05-17T08:23:46.408Z,5.53
2018-05-17T08:26:13.838Z,5.65
2018-05-17T08:28:41.288Z,5.28
2018-05-17T08:31:09.469Z,5.57
2018-05-17T08:33:37.010Z,6.68
2018-05-17T08:36:04.540Z,6.28
2018-05-17T08:38:31.950Z,6.25
2018-05-17T08:40:59.402Z,5.95
2018-05-17T08:43:26.870Z,5.50
2018-05-17T08:45:54.376Z,6.20
2018-05-17T08:48:21.800Z,5.62
2018-05-17T08:50:49.494Z,6.18
2018-05-17T08:53:16.909Z,5.35
2018-05-17T08:55:44.334Z,5.72
2018-05-17T08:58:12.530Z,6.00
2018-05-17T09:00:40.041Z,5.82
2018-05-17T09:03:08.249Z,5.70
2018-05-17T09:05:36.717Z,5.45
2018-05-17T09:08:04.138Z,5.43
2018-05-17T09:10:31.590Z,5.62
2018-05-17T09:12:59.029Z,5.95
2018-05-17T09:15:26.489Z,6.30
2018-05-17T09:18:01.566Z,6.30
2018-05-17T09:20:30.050Z,5.65
2018-05-17T09:22:57.398Z,6.40
2018-05-17T09:25:25.014Z,5.97
2018-05-17T09:27:52.409Z,5.47
2018-05-17T09:30:19.835Z,5.95
2018-05-17T09:32:47.386Z,5.82
2018-05-17T09:35:14.874Z,6.75
2018-05-17T09:37:42.432Z,6.03
2018-05-17T09:40:10.611Z,6.22
2018-05-17T09:42:38.073Z,5.93
2018-05-17T09:45:05.490Z,5.60
2018-05-17T09:47:33.716Z,6.18
2018-05-17T09:50:01.132Z,5.22
2018-05-17T09:52:28.566Z,5.37
2018-05-17T09:54:57.005Z,5.25
2018-05-17T09:57:24.422Z,6.00
2018-05-17T09:59:52.186Z,5.68
2018-05-17T10:02:19.622Z,5.50
2018-05-17T10:04:47.067Z,6.03
2018-05-17T10:07:14.588Z,6.78
2018-05-17T10:09:42.013Z,6.93
2018-05-17T10:12:10.224Z,7.43
2018-05-17T10:14:38.723Z,5.22
2018-05-17T10:17:06.143Z,5.68
2018-05-17T10:19:34.446Z,5.78
2018-05-17T10:22:02.661Z,6.85
2018-05-17T10:24:30.857Z,7.15
2018-05-17T10:26:59.099Z,7.32
2018-05-17T10:29:27.306Z,6.70
2018-05-17T10:31:55.485Z,6.35
2018-05-17T10:34:22.986Z,7.65
2018-05-17T10:36:50.530Z,6.62
2018-05-17T10:39:18.021Z,8.50
2018-05-17T10:41:46.277Z,6.12
2018-05-17T10:44:13.706Z,6.57
2018-05-17T10:46:41.147Z,7.10
2018-05-17T10:49:09.337Z,5.97
2018-05-17T10:51:36.813Z,6.45
2018-05-17T10:54:04.264Z,6.75
2018-05-17T10:56:31.962Z,6.65
2018-05-17T10:58:59.424Z,6.18
2018-05-17T11:01:26.866Z,6.50
2018-05-17T11:03:54.308Z,5.70
2018-05-17T11:06:21.786Z,6.37
2018-05-17T11:08:49.227Z,7.43
2018-05-17T11:11:16.634Z,6.72
2018-05-17T11:13:44.870Z,6.32
2018-05-17T11:16:12.632Z,7.03
2018-05-17T11:18:40.054Z,6.60
2018-05-17T11:21:08.533Z,6.30
2018-05-17T11:23:36.758Z,7.82
2018-05-17T11:26:04.183Z,7.28
2018-05-17T11:28:31.678Z,7.47
2018-05-17T11:30:59.181Z,7.18
2018-05-17T11:33:27.365Z,7.10
2018-05-17T11:35:54.954Z,7.37
2018-05-17T11:38:22.387Z,7.62
2018-05-17T11:40:49.852Z,7.70
2018-05-17T11:43:17.282Z,7.35
2018-05-17T11:45:45.487Z,8.15
2018-05-17T11:48:12.915Z,8.10
2018-05-17T11:50:41.232Z,8.05
2018-05-17T11:53:08.716Z,7.60
2018-05-17T11:55:36.182Z,8.20
2018-05-17T11:58:03.615Z,8.20
2018-05-17T12:00:31.118Z,8.40
2018-05-17T12:02:58.539Z,7.83
2018-05-17T12:05:25.957Z,7.23
2018-05-17T12:07:53.390Z,7.37
2018-05-17T12:10:21.606Z,8.40
2018-05-17T12:12:49.059Z,8.13
2018-05-17T12:15:16.623Z,7.90
2018-05-17T12:17:44.098Z,7.67
2018-05-17T12:20:11.526Z,7.63
2018-05-17T12:22:39.058Z,7.93
2018-05-17T12:25:06.570Z,7.80
2018-05-17T12:27:33.999Z,6.73
2018-05-17T12:30:01.590Z,7.17
2018-05-17T12:32:29.058Z,8.50
2018-05-17T12:34:56.485Z,7.77
2018-05-17T12:37:24.092Z,7.73
2018-05-17T12:39:51.513Z,8.87
2018-05-17T12:42:18.981Z,8.43
2018-05-17T12:44:46.390Z,8.23
2018-05-17T12:47:14.586Z,7.80
2018-05-17T12:49:42.950Z,7.90
2018-05-17T12:52:11.359Z,7.73
2018-05-17T12:54:40.358Z,7.40
2018-05-17T12:57:07.874Z,8.17
2018-05-17T12:59:36.879Z,8.73
2018-05-17T13:02:04.784Z,8.77
2018-05-17T13:04:33.209Z,8.87
2018-05-17T13:07:00.710Z,8.47
2018-05-17T13:09:28.178Z,9.47
2018-05-17T13:11:56.295Z,8.60
2018-05-17T13:14:23.714Z,8.70
2018-05-17T13:16:51.663Z,10.17
2018-05-17T13:19:19.091Z,8.90
2018-05-17T13:21:46.554Z,8.50
2018-05-17T13:24:14.359Z,9.43
2018-05-17T13:26:41.786Z,9.50
2018-05-17T13:29:10.054Z,8.37
2018-05-17T13:31:38.270Z,8.77
2018-05-17T13:34:06.563Z,7.63
2018-05-17T13:36:34.034Z,8.00
2018-05-17T13:39:01.463Z,8.87
2018-05-17T13:41:28.881Z,7.63
2018-05-17T13:43:57.109Z,8.20
2018-05-17T13:46:24.553Z,8.93
2018-05-17T13:48:52.003Z,8.83
2018-05-17T13:51:19.485Z,8.57
2018-05-17T13:53:48.010Z,8.13
2018-05-17T13:56:16.203Z,7.73
2018-05-17T13:58:43.681Z,8.47
2018-05-17T14:01:11.187Z,8.50
2018-05-17T14:03:38.633Z,8.47
2018-05-17T14:06:06.062Z,9.90
2018-05-17T14:08:33.492Z,8.40
2018-05-17T14:11:01.677Z,8.37
2018-05-17T14:13:29.255Z,7.83
2018-05-17T14:15:56.701Z,9.20
2018-05-17T14:18:24.159Z,9.53
2018-05-17T14:20:51.631Z,9.03
2018-05-17T14:23:19.357Z,8.37
2018-05-17T14:25:47.618Z,8.23
2018-05-17T14:28:16.117Z,9.67
2018-05-17T14:30:44.309Z,7.27
2018-05-17T14:33:11.758Z,8.33
2018-05-17T14:35:39.183Z,8.13
2018-05-17T14:38:06.699Z,8.30
2018-05-17T14:40:34.130Z,8.70
2018-05-17T14:43:01.623Z,8.53
2018-05-17T14:45:29.386Z,8.23
2018-05-17T14:47:56.805Z,7.67
2018-05-17T14:50:27.212Z,7.97
2018-05-17T14:52:54.638Z,7.60
2018-05-17T14:55:22.065Z,7.37
2018-05-17T14:57:49.646Z,8.90
2018-05-17T15:00:17.147Z,8.63
2018-05-17T15:02:45.067Z,8.63
2018-05-17T15:05:13.154Z,8.03
2018-05-17T15:07:40.584Z,9.20
2018-05-17T15:10:08.182Z,8.70
2018-05-17T15:12:35.621Z,7.63
2018-05-17T15:15:03.046Z,9.10
2018-05-17T15:17:30.530Z,8.70
2018-05-17T15:19:57.962Z,7.47
2018-05-17T15:22:25.554Z,8.00
2018-05-17T15:24:52.995Z,7.63
2018-05-17T15:27:20.563Z,8.23
2018-05-17T15:29:48.260Z,8.47
2018-05-17T15:32:15.725Z,9.27
2018-05-17T15:34:43.154Z,9.13
2018-05-17T15:37:10.592Z,9.03
2018-05-17T15:39:38.014Z,8.80
2018-05-17T15:42:06.210Z,9.23
2018-05-17T15:44:33.716Z,8.77
2018-05-17T15:47:02.120Z,8.57
2018-05-17T15:49:30.311Z,9.10
2018-05-17T15:51:59.497Z,9.90
2018-05-17T15:54:28.221Z,9.57
2018-05-17T15:56:55.690Z,9.73
2018-05-17T15:59:23.142Z,11.93
2018-05-17T16:01:50.622Z,12.80
2018-05-17T16:04:18.048Z,11.17
2018-05-17T16:06:45.501Z,11.60
2018-05-17T16:09:13.106Z,10.50
2018-05-17T16:11:40.546Z,11.80
2018-05-17T16:14:07.974Z,10.47
2018-05-17T16:16:35.446Z,9.97
2018-05-17T16:19:03.011Z,9.90
2018-05-17T16:21:30.433Z,9.73
2018-05-17T16:23:58.647Z,9.67
2018-05-17T16:26:26.076Z,9.97
2018-05-17T16:28:53.532Z,10.50
2018-05-17T16:31:21.737Z,8.93
2018-05-17T16:33:49.169Z,9.77
2018-05-17T16:36:16.599Z,10.00
2018-05-17T16:38:45.051Z,9.07
2018-05-17T16:41:14.495Z,9.47
2018-05-17T16:43:42.763Z,9.47
2018-05-17T16:46:10.959Z,9.50
2018-05-17T16:48:38.404Z,8.87
2018-05-17T16:51:06.719Z,9.10
2018-05-17T16:53:34.175Z,10.33
2018-05-17T16:56:01.648Z,9.13
2018-05-17T16:58:29.094Z,9.53
2018-05-17T17:00:56.527Z,9.67
2018-05-17T17:03:23.958Z,9.20
2018-05-17T17:05:52.161Z,10.63
2018-05-17T17:08:19.595Z,8.67
2018-05-17T17:10:47.851Z,10.90
2018-05-17T17:13:15.319Z,10.07
2018-05-17T17:15:43.609Z,10.00
2018-05-17T17:18:10.984Z,10.93
2018-05-17T17:20:38.470Z,10.47
2018-05-17T17:23:05.915Z,10.40
2018-05-17T17:25:33.340Z,9.27
2018-05-17T17:28:01.772Z,10.03
2018-05-17T17:30:32.127Z,9.80
2018-05-17T17:32:59.788Z,10.77
2018-05-17T17:35:27.550Z,11.77
2018-05-17T17:37:54.983Z,10.37
2018-05-17T17:40:22.413Z,10.70
2018-05-17T17:42:50.702Z,10.57
2018-05-17T17:45:23.212Z,11.27
2018-05-17T17:47:50.946Z,11.03
2018-05-17T17:50:18.382Z,11.50
2018-05-17T17:52:45.894Z,10.47
2018-05-17T17:55:13.671Z,10.77
2018-05-17T17:57:41.823Z,11.37
2018-05-17T18:00:09.416Z,11.10
2018-05-17T18:02:36.827Z,12.40
2018-05-17T18:05:04.371Z,12.13
2018-05-17T18:07:32.249Z,13.00
2018-05-17T18:09:59.866Z,11.90
2018-05-17T18:12:28.074Z,14.17
2018-05-17T18:14:56.310Z,12.07
2018-05-17T18:17:25.042Z,13.00
2018-05-17T18:19:52.482Z,12.83
2018-05-17T18:22:20.425Z,11.63
2018-05-17T18:24:48.990Z,13.57
2018-05-17T18:27:16.574Z,11.87
2018-05-17T18:29:44.842Z,13.17
2018-05-17T18:32:13.291Z,11.90
2018-05-17T18:34:40.768Z,12.03
2018-05-17T18:37:08.469Z,13.40
2018-05-17T18:39:36.178Z,12.03
2018-05-17T18:42:03.614Z,12.70
2018-05-17T18:44:31.637Z,12.60
2018-05-17T18:47:00.291Z,10.97
2018-05-17T18:49:27.761Z,11.53
2018-05-17T18:51:55.187Z,11.20
2018-05-17T18:54:22.622Z,11.13
2018-05-17T18:56:50.518Z,11.10
2018-05-17T18:59:18.399Z,10.50
2018-05-17T19:01:45.846Z,10.67
2018-05-17T19:04:13.266Z,11.43
2018-05-17T19:06:40.727Z,10.77
2018-05-17T19:09:08.155Z,10.53
2018-05-17T19:11:36.615Z,11.80
2018-05-17T19:14:04.202Z,11.10
2018-05-17T19:16:31.546Z,11.50
2018-05-17T19:18:58.999Z,10.73
2018-05-17T19:21:26.442Z,10.90
2018-05-17T19:23:55.398Z,11.97
2018-05-17T19:26:22.838Z,10.57
2018-05-17T19:28:50.635Z,9.67
2018-05-17T19:31:18.065Z,11.27
2018-05-17T19:33:45.548Z,10.07
2018-05-17T19:36:12.916Z,10.17
2018-05-17T19:38:41.108Z,9.53
2018-05-17T19:41:09.344Z,10.70
2018-05-17T19:43:36.787Z,15.07
2018-05-17T19:46:04.215Z,10.93
2018-05-17T19:48:32.409Z,11.33
2018-05-17T19:51:01.356Z,10.37
2018-05-17T19:53:29.414Z,10.47
2018-05-17T19:55:57.066Z,10.40
2018-05-17T19:58:24.777Z,12.37
2018-05-17T20:00:53.006Z,10.20
2018-05-17T20:03:20.698Z,11.33
2018-05-17T20:05:48.134Z,11.07
2018-05-17T20:08:15.575Z,10.57
2018-05-17T20:10:43.002Z,9.67
2018-05-17T20:13:11.245Z,11.00
2018-05-17T20:15:38.774Z,11.57
2018-05-17T20:18:06.662Z,11.20
2018-05-17T20:20:34.300Z,10.23
2018-05-17T20:23:01.726Z,10.63
2018-05-17T20:25:30.039Z,11.67
2018-05-17T20:27:57.517Z,10.30
2018-05-17T20:30:24.986Z,10.63
2018-05-17T20:32:52.385Z,11.10
2018-05-17T20:35:19.869Z,10.67
2018-05-17T20:37:47.307Z,9.70
2018-05-17T20:40:14.730Z,10.63
2018-05-17T20:42:43.010Z,10.37
2018-05-17T20:45:11.259Z,9.60
2018-05-17T20:47:38.694Z,8.63
2018-05-17T20:50:06.170Z,10.17
2018-05-17T20:52:33.821Z,9.40
2018-05-17T20:55:01.242Z,9.93
2018-05-17T20:57:28.726Z,9.17
2018-05-17T20:59:56.174Z,9.67
2018-05-17T21:02:23.738Z,8.13
2018-05-17T21:04:51.170Z,8.10
2018-05-17T21:07:19.376Z,8.70
2018-05-17T21:09:46.807Z,11.53
2018-05-17T21:12:14.395Z,9.70
2018-05-17T21:14:41.839Z,10.57
2018-05-17T21:17:09.278Z,10.23
2018-05-17T21:19:36.705Z,10.27
2018-05-17T21:22:04.162Z,11.40
2018-05-17T21:24:32.361Z,11.97
2018-05-17T21:27:00.545Z,12.00
2018-05-17T21:29:27.974Z,11.47
2018-05-17T21:31:55.481Z,11.17
2018-05-17T21:34:23.023Z,12.77
2018-05-17T21:36:50.541Z,10.70
2018-05-17T21:39:18.758Z,12.13
2018-05-17T21:41:46.194Z,11.83
2018-05-17T21:44:14.383Z,10.50
2018-05-17T21:46:41.905Z,10.43
2018-05-17T21:49:11.095Z,10.40
2018-05-17T21:51:38.521Z,9.67
2018-05-17T21:54:05.953Z,11.27
2018-05-17T21:56:34.175Z,10.50
2018-05-17T21:59:02.415Z,10.43
2018-05-17T22:01:30.819Z,10.97
2018-05-17T22:03:58.269Z,10.00
2018-05-17T22:06:25.729Z,9.90
2018-05-17T22:08:53.890Z,9.83
2018-05-17T22:11:21.591Z,9.73
2018-05-17T22:13:49.026Z,10.70
2018-05-17T22:16:18.783Z,10.33
2018-05-17T22:18:47.005Z,9.97
2018-05-17T22:21:14.446Z,10.40
2018-05-17T22:23:42.039Z,10.93
2018-05-17T22:26:09.584Z,11.00
2018-05-17T22:28:37.111Z,9.23
2018-05-17T22:31:05.312Z,10.10
2018-05-17T22:33:32.802Z,9.17
2018-05-17T22:36:00.409Z,9.30
2018-05-17T22:38:28.622Z,10.10
2018-05-17T22:40:56.480Z,10.00
2018-05-17T22:43:23.937Z,8.97
2018-05-17T22:45:51.353Z,10.20
2018-05-17T22:48:19.671Z,9.83
2018-05-17T22:50:47.161Z,9.10
2018-05-17T22:53:14.637Z,9.37
2018-05-17T22:55:42.053Z,10.40
2018-05-17T22:58:21.584Z,8.37
2018-05-17T23:03:28.400Z,8.47
2018-05-17T23:05:55.828Z,8.60
2018-05-17T23:08:24.242Z,8.83
2018-05-17T23:10:51.778Z,9.07
2018-05-17T23:13:19.211Z,9.40
2018-05-17T23:15:46.718Z,8.73
2018-05-17T23:18:14.272Z,8.30
